sensor_id;sensor_type;location;lat;lon;timestamp;pressure;altitude;pressure_sealevel;temperature;humidity
69780;BME280;57052;55.602;38.096;2023-05-12T00:01:10;100870.16;;;14.43;53.02
69780;BME280;57052;55.602;38.096;2023-05-12T00:03:37;100882.94;;;14.53;53.14
69780;BME280;57052;55.602;38.096;2023-05-12T00:06:03;100886.44;;;14.53;53.23
69780;BME280;57052;55.602;38.096;2023-05-12T00:08:29;100890.00;;;14.54;53.52
69780;BME280;57052;55.602;38.096;2023-05-12T00:10:56;100890.00;;;14.54;53.43
69780;BME280;57052;55.602;38.096;2023-05-12T00:13:21;100884.03;;;14.52;53.53
69780;BME280;57052;55.602;38.096;2023-05-12T00:15:49;100889.47;;;14.52;53.29
69780;BME280;57052;55.602;38.096;2023-05-12T00:18:16;100886.75;;;14.52;53.66
69780;BME280;57052;55.602;38.096;2023-05-12T00:20:42;100887.81;;;14.51;53.31
69780;BME280;57052;55.602;38.096;2023-05-12T00:23:07;100874.25;;;14.41;53.30
69780;BME280;57052;55.602;38.096;2023-05-12T00:25:34;100885.69;;;14.48;53.90
69780;BME280;57052;55.602;38.096;2023-05-12T00:27:59;100889.50;;;14.47;53.60
69780;BME280;57052;55.602;38.096;2023-05-12T00:30:25;100884.59;;;14.44;53.83
69780;BME280;57052;55.602;38.096;2023-05-12T00:32:51;100893.31;;;14.41;54.15
69780;BME280;57052;55.602;38.096;2023-05-12T00:35:17;100861.47;;;14.26;54.17
69780;BME280;57052;55.602;38.096;2023-05-12T00:37:43;100880.81;;;14.35;54.31
69780;BME280;57052;55.602;38.096;2023-05-12T00:40:09;100888.72;;;14.31;54.29
69780;BME280;57052;55.602;38.096;2023-05-12T00:42:35;100868.59;;;14.17;54.45
69780;BME280;57052;55.602;38.096;2023-05-12T00:45:01;100887.66;;;14.17;54.35
69780;BME280;57052;55.602;38.096;2023-05-12T00:47:31;100888.19;;;14.19;54.58
69780;BME280;57052;55.602;38.096;2023-05-12T00:49:57;100888.75;;;14.16;54.97
69780;BME280;57052;55.602;38.096;2023-05-12T00:52:23;100881.13;;;14.13;55.19
69780;BME280;57052;55.602;38.096;2023-05-12T00:54:49;100874.34;;;14.00;55.32
69780;BME280;57052;55.602;38.096;2023-05-12T00:57:15;100885.81;;;14.02;55.25
69780;BME280;57052;55.602;38.096;2023-05-12T00:59:42;100892.31;;;14.01;55.47
69780;BME280;57052;55.602;38.096;2023-05-12T01:02:08;100896.13;;;14.00;55.11
69780;BME280;57052;55.602;38.096;2023-05-12T01:04:34;100891.28;;;13.92;55.54
69780;BME280;57052;55.602;38.096;2023-05-12T01:07:14;100893.19;;;13.87;56.05
69780;BME280;57052;55.602;38.096;2023-05-12T01:09:42;100842.88;;;13.59;55.53
69780;BME280;57052;55.602;38.096;2023-05-12T01:12:08;100894.25;;;13.86;55.08
69780;BME280;57052;55.602;38.096;2023-05-12T01:14:33;100885.28;;;13.80;55.06
69780;BME280;57052;55.602;38.096;2023-05-12T01:17:01;100884.19;;;13.81;54.22
69780;BME280;57052;55.602;38.096;2023-05-12T01:19:55;100899.16;;;13.79;55.73
69780;BME280;57052;55.602;38.096;2023-05-12T01:22:24;100905.44;;;13.84;54.70
69780;BME280;57052;55.602;38.096;2023-05-12T01:24:57;100903.53;;;13.85;54.39
69780;BME280;57052;55.602;38.096;2023-05-12T01:27:24;100901.06;;;13.83;54.42
69780;BME280;57052;55.602;38.096;2023-05-12T01:29:51;100899.69;;;13.86;54.01
69780;BME280;57052;55.602;38.096;2023-05-12T01:32:18;100899.44;;;13.87;53.75
69780;BME280;57052;55.602;38.096;2023-05-12T01:34:45;100895.91;;;13.87;53.06
69780;BME280;57052;55.602;38.096;2023-05-12T01:37:11;100899.97;;;13.89;52.71
69780;BME280;57052;55.602;38.096;2023-05-12T01:39:37;100894.53;;;13.84;53.04
69780;BME280;57052;55.602;38.096;2023-05-12T01:42:03;100876.59;;;13.78;54.18
69780;BME280;57052;55.602;38.096;2023-05-12T01:44:29;100892.06;;;13.88;53.89
69780;BME280;57052;55.602;38.096;2023-05-12T01:46:55;100896.16;;;13.85;53.64
69780;BME280;57052;55.602;38.096;2023-05-12T01:49:21;100893.19;;;13.82;53.97
69780;BME280;57052;55.602;38.096;2023-05-12T01:51:47;100901.59;;;13.80;53.95
69780;BME280;57052;55.602;38.096;2023-05-12T01:54:13;100894.00;;;13.77;53.89
69780;BME280;57052;55.602;38.096;2023-05-12T01:56:38;100902.19;;;13.77;54.04
69780;BME280;57052;55.602;38.096;2023-05-12T01:59:05;100901.34;;;13.77;54.08
69780;BME280;57052;55.602;38.096;2023-05-12T02:01:31;100892.91;;;13.68;54.47
69780;BME280;57052;55.602;38.096;2023-05-12T02:03:58;100904.38;;;13.75;54.53
69780;BME280;57052;55.602;38.096;2023-05-12T02:06:24;100899.72;;;13.71;55.03
69780;BME280;57052;55.602;38.096;2023-05-12T02:08:50;100873.88;;;13.53;54.54
69780;BME280;57052;55.602;38.096;2023-05-12T02:11:16;100907.34;;;13.69;55.16
69780;BME280;57052;55.602;38.096;2023-05-12T02:13:42;100909.81;;;13.65;55.38
69780;BME280;57052;55.602;38.096;2023-05-12T02:16:11;100909.81;;;13.60;55.47
69780;BME280;57052;55.602;38.096;2023-05-12T02:18:37;100900.00;;;13.54;55.83
69780;BME280;57052;55.602;38.096;2023-05-12T02:21:22;100913.91;;;13.53;55.63
69780;BME280;57052;55.602;38.096;2023-05-12T02:23:48;100915.50;;;13.48;55.69
69780;BME280;57052;55.602;38.096;2023-05-12T02:26:14;100911.19;;;13.47;55.82
69780;BME280;57052;55.602;38.096;2023-05-12T02:28:39;100914.97;;;13.41;56.09
69780;BME280;57052;55.602;38.096;2023-05-12T02:31:05;100922.06;;;13.42;56.37
69780;BME280;57052;55.602;38.096;2023-05-12T02:33:31;100853.44;;;13.00;56.82
69780;BME280;57052;55.602;38.096;2023-05-12T02:35:56;100915.25;;;13.35;56.46
69780;BME280;57052;55.602;38.096;2023-05-12T02:38:22;100910.34;;;13.32;56.59
69780;BME280;57052;55.602;38.096;2023-05-12T02:40:48;100913.59;;;13.34;56.42
69780;BME280;57052;55.602;38.096;2023-05-12T02:43:13;100914.69;;;13.33;56.53
69780;BME280;57052;55.602;38.096;2023-05-12T02:45:39;100917.41;;;13.33;56.76
69780;BME280;57052;55.602;38.096;2023-05-12T02:48:05;100918.22;;;13.33;56.53
69780;BME280;57052;55.602;38.096;2023-05-12T02:50:31;100917.16;;;13.34;56.67
69780;BME280;57052;55.602;38.096;2023-05-12T02:52:57;100919.88;;;13.34;56.55
69780;BME280;57052;55.602;38.096;2023-05-12T02:55:22;100925.84;;;13.36;56.83
69780;BME280;57052;55.602;38.096;2023-05-12T02:57:48;100923.13;;;13.36;56.97
69780;BME280;57052;55.602;38.096;2023-05-12T03:00:14;100924.78;;;13.37;56.99
69780;BME280;57052;55.602;38.096;2023-05-12T03:02:40;100919.88;;;13.39;57.31
69780;BME280;57052;55.602;38.096;2023-05-12T03:05:07;100925.03;;;13.41;57.33
69780;BME280;57052;55.602;38.096;2023-05-12T03:07:33;100926.66;;;13.42;57.15
69780;BME280;57052;55.602;38.096;2023-05-12T03:09:59;100924.78;;;13.42;57.02
69780;BME280;57052;55.602;38.096;2023-05-12T03:12:26;100921.50;;;13.45;57.37
69780;BME280;57052;55.602;38.096;2023-05-12T03:14:54;100926.69;;;13.47;57.54
69780;BME280;57052;55.602;38.096;2023-05-12T03:17:20;100925.84;;;13.52;56.96
69780;BME280;57052;55.602;38.096;2023-05-12T03:19:46;100921.25;;;13.52;57.18
69780;BME280;57052;55.602;38.096;2023-05-12T03:22:12;100924.50;;;13.54;57.19
69780;BME280;57052;55.602;38.096;2023-05-12T03:24:38;100925.84;;;13.57;57.18
69780;BME280;57052;55.602;38.096;2023-05-12T03:27:03;100917.16;;;13.55;56.75
69780;BME280;57052;55.602;38.096;2023-05-12T03:29:30;100904.38;;;13.55;57.17
69780;BME280;57052;55.602;38.096;2023-05-12T03:31:55;100914.97;;;13.67;57.13
69780;BME280;57052;55.602;38.096;2023-05-12T03:34:21;100909.25;;;13.63;56.74
69780;BME280;57052;55.602;38.096;2023-05-12T03:36:47;100911.72;;;13.70;56.66
69780;BME280;57052;55.602;38.096;2023-05-12T03:39:12;100914.97;;;13.77;56.54
69780;BME280;57052;55.602;38.096;2023-05-12T03:41:38;100894.84;;;13.63;56.16
69780;BME280;57052;55.602;38.096;2023-05-12T03:44:04;100914.66;;;13.83;56.33
69780;BME280;57052;55.602;38.096;2023-05-12T03:46:30;100916.56;;;13.88;56.06
69780;BME280;57052;55.602;38.096;2023-05-12T03:48:56;100915.75;;;13.92;56.31
69780;BME280;57052;55.602;38.096;2023-05-12T03:51:23;100889.66;;;13.76;56.03
69780;BME280;57052;55.602;38.096;2023-05-12T03:53:49;100850.50;;;13.57;56.33
69780;BME280;57052;55.602;38.096;2023-05-12T03:56:15;100926.06;;;14.05;56.38
69780;BME280;57052;55.602;38.096;2023-05-12T03:58:42;100910.31;;;14.02;56.63
69780;BME280;57052;55.602;38.096;2023-05-12T04:01:08;100914.09;;;14.11;56.64
69780;BME280;57052;55.602;38.096;2023-05-12T04:03:34;100921.41;;;14.21;56.66
69780;BME280;57052;55.602;38.096;2023-05-12T04:06:01;100924.13;;;14.26;57.18
69780;BME280;57052;55.602;38.096;2023-05-12T04:08:27;100926.84;;;14.31;56.77
69780;BME280;57052;55.602;38.096;2023-05-12T04:10:57;100926.84;;;14.36;57.22
69780;BME280;57052;55.602;38.096;2023-05-12T04:13:24;100917.03;;;14.40;56.35
69780;BME280;57052;55.602;38.096;2023-05-12T04:15:50;100917.78;;;14.51;55.97
69780;BME280;57052;55.602;38.096;2023-05-12T04:18:16;100914.50;;;14.54;55.49
69780;BME280;57052;55.602;38.096;2023-05-12T04:20:42;100918.56;;;14.61;55.28
69780;BME280;57052;55.602;38.096;2023-05-12T04:23:08;100917.19;;;14.69;55.32
69780;BME280;57052;55.602;38.096;2023-05-12T04:25:38;100911.69;;;14.74;55.33
69780;BME280;57052;55.602;38.096;2023-05-12T04:28:05;100902.94;;;14.82;54.87
69780;BME280;57052;55.602;38.096;2023-05-12T04:30:31;100895.03;;;14.81;54.35
69780;BME280;57052;55.602;38.096;2023-05-12T04:32:57;100904.78;;;14.92;53.75
69780;BME280;57052;55.602;38.096;2023-05-12T04:35:22;100893.84;;;14.97;53.45
69780;BME280;57052;55.602;38.096;2023-05-12T04:37:48;100893.81;;;15.02;53.24
69780;BME280;57052;55.602;38.096;2023-05-12T04:40:14;100908.75;;;15.14;53.43
69780;BME280;57052;55.602;38.096;2023-05-12T04:42:40;100903.78;;;15.21;52.79
69780;BME280;57052;55.602;38.096;2023-05-12T04:45:06;100899.44;;;15.20;53.05
69780;BME280;57052;55.602;38.096;2023-05-12T04:47:32;100905.88;;;15.34;52.74
69780;BME280;57052;55.602;38.096;2023-05-12T04:49:58;100905.00;;;15.39;52.26
69780;BME280;57052;55.602;38.096;2023-05-12T04:52:23;100907.97;;;15.48;52.22
69780;BME280;57052;55.602;38.096;2023-05-12T04:54:49;100905.75;;;15.55;52.17
69780;BME280;57052;55.602;38.096;2023-05-12T04:57:15;100900.22;;;15.60;51.97
69780;BME280;57052;55.602;38.096;2023-05-12T04:59:41;100904.81;;;15.64;51.96
69780;BME280;57052;55.602;38.096;2023-05-12T05:02:09;100892.88;;;15.60;51.64
69780;BME280;57052;55.602;38.096;2023-05-12T05:04:36;100906.66;;;15.74;51.87
69780;BME280;57052;55.602;38.096;2023-05-12T05:07:02;100891.97;;;15.70;51.71
69780;BME280;57052;55.602;38.096;2023-05-12T05:09:28;100904.38;;;15.81;51.59
69780;BME280;57052;55.602;38.096;2023-05-12T05:11:54;100903.56;;;15.85;51.72
69780;BME280;57052;55.602;38.096;2023-05-12T05:14:20;100901.03;;;15.89;51.44
69780;BME280;57052;55.602;38.096;2023-05-12T05:16:46;100902.69;;;15.90;51.32
69780;BME280;57052;55.602;38.096;2023-05-12T05:19:13;100908.31;;;15.98;51.08
69780;BME280;57052;55.602;38.096;2023-05-12T05:21:39;100906.91;;;16.01;51.00
69780;BME280;57052;55.602;38.096;2023-05-12T05:24:05;100904.44;;;16.04;50.64
69780;BME280;57052;55.602;38.096;2023-05-12T05:26:31;100901.66;;;16.10;50.40
69780;BME280;57052;55.602;38.096;2023-05-12T05:28:56;100907.88;;;16.15;50.39
69780;BME280;57052;55.602;38.096;2023-05-12T05:31:22;100901.09;;;16.13;50.29
69780;BME280;57052;55.602;38.096;2023-05-12T05:33:48;100904.78;;;16.22;50.12
69780;BME280;57052;55.602;38.096;2023-05-12T05:36:14;100903.41;;;16.24;50.06
69780;BME280;57052;55.602;38.096;2023-05-12T05:38:39;100903.66;;;16.28;49.95
69780;BME280;57052;55.602;38.096;2023-05-12T05:41:05;100893.75;;;16.32;50.10
69780;BME280;57052;55.602;38.096;2023-05-12T05:43:31;100896.94;;;16.39;49.63
69780;BME280;57052;55.602;38.096;2023-05-12T05:45:57;100898.50;;;16.45;49.75
69780;BME280;57052;55.602;38.096;2023-05-12T05:48:23;100892.22;;;16.44;49.54
69780;BME280;57052;55.602;38.096;2023-05-12T05:50:52;100887.28;;;16.46;49.18
69780;BME280;57052;55.602;38.096;2023-05-12T05:53:19;100897.31;;;16.56;49.07
69780;BME280;57052;55.602;38.096;2023-05-12T05:55:46;100881.25;;;16.49;48.59
69780;BME280;57052;55.602;38.096;2023-05-12T05:58:13;100899.69;;;16.62;48.63
69780;BME280;57052;55.602;38.096;2023-05-12T06:00:40;100882.53;;;16.57;48.55
69780;BME280;57052;55.602;38.096;2023-05-12T06:03:07;100891.63;;;16.71;48.63
69780;BME280;57052;55.602;38.096;2023-05-12T06:05:33;100885.81;;;16.78;48.48
69780;BME280;57052;55.602;38.096;2023-05-12T06:07:58;100896.09;;;16.86;48.54
69780;BME280;57052;55.602;38.096;2023-05-12T06:10:24;100879.16;;;16.84;48.41
69780;BME280;57052;55.602;38.096;2023-05-12T06:12:50;100890.19;;;16.97;48.20
69780;BME280;57052;55.602;38.096;2023-05-12T06:15:16;100885.16;;;17.04;48.03
69780;BME280;57052;55.602;38.096;2023-05-12T06:17:42;100881.53;;;17.09;48.21
69780;BME280;57052;55.602;38.096;2023-05-12T06:20:08;100886.84;;;17.19;47.91
69780;BME280;57052;55.602;38.096;2023-05-12T06:22:34;100879.13;;;17.21;47.61
69780;BME280;57052;55.602;38.096;2023-05-12T06:25:00;100881.78;;;17.26;47.58
69780;BME280;57052;55.602;38.096;2023-05-12T06:27:26;100880.19;;;17.25;47.73
69780;BME280;57052;55.602;38.096;2023-05-12T06:29:52;100886.91;;;17.33;47.76
69780;BME280;57052;55.602;38.096;2023-05-12T06:32:18;100877.56;;;17.33;47.69
69780;BME280;57052;55.602;38.096;2023-05-12T06:34:43;100888.34;;;17.44;47.56
69780;BME280;57052;55.602;38.096;2023-05-12T06:37:09;100876.63;;;17.43;47.46
69780;BME280;57052;55.602;38.096;2023-05-12T06:39:35;100874.84;;;17.52;47.49
69780;BME280;57052;55.602;38.096;2023-05-12T06:42:01;100886.22;;;17.59;47.53
69780;BME280;57052;55.602;38.096;2023-05-12T06:44:27;100881.16;;;17.66;47.47
69780;BME280;57052;55.602;38.096;2023-05-12T06:46:52;100881.28;;;17.75;47.07
69780;BME280;57052;55.602;38.096;2023-05-12T06:49:18;100880.88;;;17.81;47.16
69780;BME280;57052;55.602;38.096;2023-05-12T06:51:44;100883.53;;;17.86;46.67
69780;BME280;57052;55.602;38.096;2023-05-12T06:54:10;100874.72;;;17.89;46.26
69780;BME280;57052;55.602;38.096;2023-05-12T06:56:36;100866.81;;;17.88;46.49
69780;BME280;57052;55.602;38.096;2023-05-12T06:59:02;100862.06;;;17.93;46.19
69780;BME280;57052;55.602;38.096;2023-05-12T07:01:30;100864.78;;;18.07;46.06
69780;BME280;57052;55.602;38.096;2023-05-12T07:03:56;100875.34;;;18.14;45.75
69780;BME280;57052;55.602;38.096;2023-05-12T07:06:22;100874.13;;;18.20;46.04
69780;BME280;57052;55.602;38.096;2023-05-12T07:08:48;100871.50;;;18.28;45.83
69780;BME280;57052;55.602;38.096;2023-05-12T07:11:14;100875.25;;;18.32;45.27
69780;BME280;57052;55.602;38.096;2023-05-12T07:13:45;100869.34;;;18.39;45.05
69780;BME280;57052;55.602;38.096;2023-05-12T07:16:12;100863.75;;;18.44;44.68
69780;BME280;57052;55.602;38.096;2023-05-12T07:18:38;100866.75;;;18.47;44.56
69780;BME280;57052;55.602;38.096;2023-05-12T07:21:03;100860.34;;;18.52;44.29
69780;BME280;57052;55.602;38.096;2023-05-12T07:23:29;100856.88;;;18.60;44.68
69780;BME280;57052;55.602;38.096;2023-05-12T07:25:55;100860.31;;;18.66;43.96
69780;BME280;57052;55.602;38.096;2023-05-12T07:28:21;100863.66;;;18.76;42.95
69780;BME280;57052;55.602;38.096;2023-05-12T07:30:47;100856.63;;;18.84;42.93
69780;BME280;57052;55.602;38.096;2023-05-12T07:33:13;100850.38;;;18.92;42.86
69780;BME280;57052;55.602;38.096;2023-05-12T07:35:38;100850.97;;;19.02;42.64
69780;BME280;57052;55.602;38.096;2023-05-12T07:38:04;100849.72;;;19.08;41.34
69780;BME280;57052;55.602;38.096;2023-05-12T07:40:30;100855.75;;;19.19;41.14
69780;BME280;57052;55.602;38.096;2023-05-12T07:42:56;100852.28;;;19.27;41.26
69780;BME280;57052;55.602;38.096;2023-05-12T07:45:21;100845.84;;;19.32;40.87
69780;BME280;57052;55.602;38.096;2023-05-12T07:47:49;100850.00;;;19.43;40.55
69780;BME280;57052;55.602;38.096;2023-05-12T07:50:17;100854.75;;;19.51;40.67
69780;BME280;57052;55.602;38.096;2023-05-12T07:52:50;100853.47;;;19.57;38.72
69780;BME280;57052;55.602;38.096;2023-05-12T07:55:16;100853.06;;;19.63;38.16
69780;BME280;57052;55.602;38.096;2023-05-12T07:57:42;100856.28;;;19.65;36.75
69780;BME280;57052;55.602;38.096;2023-05-12T08:00:09;100853.91;;;19.72;35.47
69780;BME280;57052;55.602;38.096;2023-05-12T08:02:36;100858.16;;;19.78;35.28
69780;BME280;57052;55.602;38.096;2023-05-12T08:05:02;100853.97;;;19.81;35.00
69780;BME280;57052;55.602;38.096;2023-05-12T08:07:31;100850.56;;;19.84;35.35
69780;BME280;57052;55.602;38.096;2023-05-12T08:09:56;100853.50;;;19.88;33.59
69780;BME280;57052;55.602;38.096;2023-05-12T08:12:22;100851.91;;;19.95;33.48
69780;BME280;57052;55.602;38.096;2023-05-12T08:14:48;100839.97;;;20.00;33.62
69780;BME280;57052;55.602;38.096;2023-05-12T08:17:13;100853.28;;;20.15;33.57
69780;BME280;57052;55.602;38.096;2023-05-12T08:19:39;100858.84;;;20.23;32.74
69780;BME280;57052;55.602;38.096;2023-05-12T08:22:05;100842.63;;;20.22;32.13
69780;BME280;57052;55.602;38.096;2023-05-12T08:24:30;100849.69;;;20.36;32.56
69780;BME280;57052;55.602;38.096;2023-05-12T08:26:56;100846.13;;;20.44;32.35
69780;BME280;57052;55.602;38.096;2023-05-12T08:29:21;100840.47;;;20.50;32.21
69780;BME280;57052;55.602;38.096;2023-05-12T08:31:47;100837.41;;;20.60;31.91
69780;BME280;57052;55.602;38.096;2023-05-12T08:34:13;100834.34;;;20.70;32.11
69780;BME280;57052;55.602;38.096;2023-05-12T08:36:39;100833.56;;;20.78;32.83
69780;BME280;57052;55.602;38.096;2023-05-12T08:39:05;100825.47;;;20.90;32.94
69780;BME280;57052;55.602;38.096;2023-05-12T08:41:50;100830.16;;;20.98;31.79
69780;BME280;57052;55.602;38.096;2023-05-12T08:44:17;100826.78;;;21.09;32.43
69780;BME280;57052;55.602;38.096;2023-05-12T08:46:43;100833.91;;;21.19;31.57
69780;BME280;57052;55.602;38.096;2023-05-12T08:49:11;100828.72;;;21.26;30.98
69780;BME280;57052;55.602;38.096;2023-05-12T08:51:40;100804.25;;;21.25;31.16
69780;BME280;57052;55.602;38.096;2023-05-12T08:54:11;100810.88;;;21.41;30.95
69780;BME280;57052;55.602;38.096;2023-05-12T08:56:41;100813.78;;;21.44;29.66
69780;BME280;57052;55.602;38.096;2023-05-12T08:59:09;100797.56;;;21.51;29.56
69780;BME280;57052;55.602;38.096;2023-05-12T09:01:36;100808.69;;;21.63;30.15
69780;BME280;57052;55.602;38.096;2023-05-12T09:04:03;100808.06;;;21.66;29.78
69780;BME280;57052;55.602;38.096;2023-05-12T09:06:29;100811.38;;;21.81;29.81
69780;BME280;57052;55.602;38.096;2023-05-12T09:08:55;100813.47;;;21.92;29.72
69780;BME280;57052;55.602;38.096;2023-05-12T09:11:21;100813.59;;;22.04;30.10
69780;BME280;57052;55.602;38.096;2023-05-12T09:14:03;100798.47;;;22.10;26.02
69780;BME280;57052;55.602;38.096;2023-05-12T09:16:32;100793.38;;;22.21;27.17
69780;BME280;57052;55.602;38.096;2023-05-12T09:18:59;100794.72;;;22.44;28.97
69780;BME280;57052;55.602;38.096;2023-05-12T09:21:27;100796.38;;;22.57;28.59
69780;BME280;57052;55.602;38.096;2023-05-12T09:23:57;100792.47;;;22.67;28.03
69780;BME280;57052;55.602;38.096;2023-05-12T09:26:27;100795.41;;;22.82;25.98
69780;BME280;57052;55.602;38.096;2023-05-12T09:29:04;100798.56;;;22.93;27.34
69780;BME280;57052;55.602;38.096;2023-05-12T09:31:31;100790.94;;;23.11;28.07
69780;BME280;57052;55.602;38.096;2023-05-12T09:33:57;100792.94;;;23.22;27.33
69780;BME280;57052;55.602;38.096;2023-05-12T09:36:24;100792.66;;;23.36;26.77
69780;BME280;57052;55.602;38.096;2023-05-12T09:39:03;100791.53;;;23.37;23.40
69780;BME280;57052;55.602;38.096;2023-05-12T09:41:40;100785.06;;;23.45;23.44
69780;BME280;57052;55.602;38.096;2023-05-12T09:44:07;100777.63;;;23.57;26.51
69780;BME280;57052;55.602;38.096;2023-05-12T09:46:33;100781.78;;;23.76;26.60
69780;BME280;57052;55.602;38.096;2023-05-12T09:49:00;100791.63;;;23.97;26.13
69780;BME280;57052;55.602;38.096;2023-05-12T09:51:28;100784.47;;;24.20;25.82
69780;BME280;57052;55.602;38.096;2023-05-12T09:53:56;100781.69;;;24.45;26.09
69780;BME280;57052;55.602;38.096;2023-05-12T09:56:22;100773.69;;;24.67;25.86
69780;BME280;57052;55.602;38.096;2023-05-12T09:58:52;100772.09;;;24.94;25.54
69780;BME280;57052;55.602;38.096;2023-05-12T10:01:19;100764.47;;;25.19;25.63
69780;BME280;57052;55.602;38.096;2023-05-12T10:03:54;100763.56;;;25.42;23.23
69780;BME280;57052;55.602;38.096;2023-05-12T10:06:31;100761.78;;;25.66;23.18
69780;BME280;57052;55.602;38.096;2023-05-12T10:09:13;100752.31;;;25.82;21.66
69780;BME280;57052;55.602;38.096;2023-05-12T10:11:40;100766.41;;;25.93;24.17
69780;BME280;57052;55.602;38.096;2023-05-12T10:14:07;100760.72;;;25.86;23.41
69780;BME280;57052;55.602;38.096;2023-05-12T10:16:35;100763.94;;;25.72;23.15
69780;BME280;57052;55.602;38.096;2023-05-12T10:19:04;100752.00;;;25.40;21.34
69780;BME280;57052;55.602;38.096;2023-05-12T10:21:30;100757.78;;;25.35;23.11
69780;BME280;57052;55.602;38.096;2023-05-12T10:23:56;100757.44;;;25.21;22.86
69780;BME280;57052;55.602;38.096;2023-05-12T10:26:23;100753.75;;;25.17;23.60
69780;BME280;57052;55.602;38.096;2023-05-12T10:28:49;100753.94;;;25.24;23.45
69780;BME280;57052;55.602;38.096;2023-05-12T10:31:16;100746.19;;;25.30;24.14
69780;BME280;57052;55.602;38.096;2023-05-12T10:33:43;100747.56;;;25.52;24.10
69780;BME280;57052;55.602;38.096;2023-05-12T10:36:18;100739.44;;;25.74;23.18
69780;BME280;57052;55.602;38.096;2023-05-12T10:38:47;100747.91;;;25.97;23.14
69780;BME280;57052;55.602;38.096;2023-05-12T10:41:16;100750.41;;;26.02;23.68
69780;BME280;57052;55.602;38.096;2023-05-12T10:43:52;100751.28;;;26.06;23.43
69780;BME280;57052;55.602;38.096;2023-05-12T10:46:20;100749.50;;;25.98;22.40
69780;BME280;57052;55.602;38.096;2023-05-12T10:51:27;100739.66;;;26.16;22.91
69780;BME280;57052;55.602;38.096;2023-05-12T10:53:56;100734.22;;;26.39;22.19
69780;BME280;57052;55.602;38.096;2023-05-12T10:56:25;100752.19;;;26.80;22.95
69780;BME280;57052;55.602;38.096;2023-05-12T10:59:17;100748.06;;;27.12;20.60
69780;BME280;57052;55.602;38.096;2023-05-12T11:02:14;100750.22;;;27.41;18.81
69780;BME280;57052;55.602;38.096;2023-05-12T11:04:58;100734.97;;;27.54;19.13
69780;BME280;57052;55.602;38.096;2023-05-12T11:07:26;100741.31;;;27.77;21.09
69780;BME280;57052;55.602;38.096;2023-05-12T11:09:53;100735.66;;;27.96;20.97
69780;BME280;57052;55.602;38.096;2023-05-12T11:12:19;100737.28;;;27.97;20.66
69780;BME280;57052;55.602;38.096;2023-05-12T11:14:46;100721.41;;;27.75;20.46
69780;BME280;57052;55.602;38.096;2023-05-12T11:17:12;100744.03;;;27.74;20.84
69780;BME280;57052;55.602;38.096;2023-05-12T11:19:42;100740.97;;;27.56;20.39
69780;BME280;57052;55.602;38.096;2023-05-12T11:22:10;100733.38;;;27.34;20.11
69780;BME280;57052;55.602;38.096;2023-05-12T11:24:38;100743.75;;;27.14;20.99
69780;BME280;57052;55.602;38.096;2023-05-12T11:27:05;100735.50;;;26.99;20.84
69780;BME280;57052;55.602;38.096;2023-05-12T11:29:31;100742.75;;;26.84;21.10
69780;BME280;57052;55.602;38.096;2023-05-12T11:31:57;100733.97;;;26.63;21.02
69780;BME280;57052;55.602;38.096;2023-05-12T11:34:25;100731.81;;;26.56;21.25
69780;BME280;57052;55.602;38.096;2023-05-12T11:36:53;100729.91;;;26.41;20.77
69780;BME280;57052;55.602;38.096;2023-05-12T11:39:25;100725.22;;;26.26;20.59
69780;BME280;57052;55.602;38.096;2023-05-12T11:41:51;100736.16;;;26.19;21.70
69780;BME280;57052;55.602;38.096;2023-05-12T11:44:19;100730.72;;;26.07;21.21
69780;BME280;57052;55.602;38.096;2023-05-12T11:49:19;100731.81;;;25.87;21.57
69780;BME280;57052;55.602;38.096;2023-05-12T11:51:45;100726.38;;;25.75;21.89
69780;BME280;57052;55.602;38.096;2023-05-12T11:54:11;100741.22;;;25.67;21.80
69780;BME280;57052;55.602;38.096;2023-05-12T11:56:37;100734.97;;;25.54;21.91
69780;BME280;57052;55.602;38.096;2023-05-12T11:59:02;100720.63;;;25.36;22.34
69780;BME280;57052;55.602;38.096;2023-05-12T12:01:28;100727.81;;;25.25;22.26
69780;BME280;57052;55.602;38.096;2023-05-12T12:03:54;100741.94;;;25.20;22.40
69780;BME280;57052;55.602;38.096;2023-05-12T12:06:21;100740.16;;;25.12;22.45
69780;BME280;57052;55.602;38.096;2023-05-12T12:08:58;100727.41;;;24.96;21.71
69780;BME280;57052;55.602;38.096;2023-05-12T12:11:27;100740.00;;;24.93;22.46
69780;BME280;57052;55.602;38.096;2023-05-12T12:13:55;100735.47;;;24.85;22.46
69780;BME280;57052;55.602;38.096;2023-05-12T12:16:29;100737.22;;;24.77;21.99
69780;BME280;57052;55.602;38.096;2023-05-12T12:18:56;100733.50;;;24.73;22.67
69780;BME280;57052;55.602;38.096;2023-05-12T12:21:23;100730.84;;;24.77;22.46
69780;BME280;57052;55.602;38.096;2023-05-12T12:23:49;100725.47;;;24.96;22.35
69780;BME280;57052;55.602;38.096;2023-05-12T12:26:16;100715.84;;;25.21;21.99
69780;BME280;57052;55.602;38.096;2023-05-12T12:28:45;100713.84;;;25.50;20.84
69780;BME280;57052;55.602;38.096;2023-05-12T12:31:12;100709.38;;;25.76;21.81
69780;BME280;57052;55.602;38.096;2023-05-12T12:33:38;100710.44;;;25.87;21.55
69780;BME280;57052;55.602;38.096;2023-05-12T12:36:04;100706.47;;;25.88;21.23
69780;BME280;57052;55.602;38.096;2023-05-12T12:38:30;100708.69;;;25.98;21.22
69780;BME280;57052;55.602;38.096;2023-05-12T12:40:56;100701.31;;;25.87;20.87
69780;BME280;57052;55.602;38.096;2023-05-12T12:43:22;100684.56;;;25.83;20.67
69780;BME280;57052;55.602;38.096;2023-05-12T12:45:48;100704.66;;;25.96;20.98